Time;durP1;ratioP1;P1;durP2;ratioP2;P2;SDS_P1;SDS_P2;PMS_P1;PMS_P2;Temp;Humidity;BMP_temperature;BMP_pressure;BME280_temperature;BME280_humidity;BME280_pressure;Samples;Min_cycle;Max_cycle;Signal;HPM_P1;HPM_P2
2022/11/01 00:01:52;;;;;;;11.53;9.93;;;11.60;99.90;;;;;;4971301;28;20992;-88
2022/11/01 00:04:19;;;;;;;11.00;9.90;;;11.40;99.90;;;;;;4971854;28;20618;-90
2022/11/01 00:06:46;;;;;;;10.60;9.63;;;11.70;99.90;;;;;;4972053;28;20644;-90
2022/11/01 00:09:13;;;;;;;11.50;10.40;;;11.70;99.90;;;;;;4973287;28;20764;-90
2022/11/01 00:11:40;;;;;;;15.27;10.40;;;11.50;99.90;;;;;;4972303;28;20640;-90
2022/11/01 00:14:07;;;;;;;11.53;10.33;;;11.50;99.90;;;;;;4969829;28;20660;-91
2022/11/01 00:16:35;;;;;;;13.07;10.30;;;11.60;99.90;;;;;;4972493;28;20633;-90
2022/11/01 00:19:02;;;;;;;13.30;10.57;;;11.50;99.90;;;;;;4970355;28;20617;-91
2022/11/01 00:21:29;;;;;;;11.33;10.13;;;11.50;99.90;;;;;;4970608;28;20636;-89
2022/11/01 00:23:55;;;;;;;11.17;10.00;;;11.80;99.90;;;;;;4972771;28;20654;-89
2022/11/01 00:26:23;;;;;;;14.03;12.53;;;11.50;99.90;;;;;;4970430;28;20653;-90
2022/11/01 00:28:51;;;;;;;13.53;12.07;;;11.60;99.90;;;;;;4969667;28;20897;-89
2022/11/01 00:31:19;;;;;;;14.83;11.60;;;11.20;99.90;;;;;;4977385;28;20628;-90
2022/11/01 00:33:47;;;;;;;13.57;12.27;;;11.40;99.90;;;;;;4973781;28;20645;-89
2022/11/01 00:36:15;;;;;;;15.40;12.07;;;11.20;99.90;;;;;;4969647;28;20629;-89
2022/11/01 00:38:41;;;;;;;13.83;12.53;;;11.40;99.90;;;;;;4972892;28;20625;-91
2022/11/01 00:41:08;;;;;;;15.63;11.43;;;11.50;99.90;;;;;;4969703;28;20633;-90
2022/11/01 00:43:36;;;;;;;14.30;12.40;;;11.70;99.90;;;;;;4982536;28;20656;-90
2022/11/01 00:46:04;;;;;;;12.13;10.97;;;11.50;99.90;;;;;;4965391;28;20625;-89
2022/11/01 00:48:31;;;;;;;12.60;11.30;;;11.40;99.90;;;;;;4970663;28;21011;-89
2022/11/01 00:50:59;;;;;;;12.67;10.93;;;11.50;99.90;;;;;;4971960;28;20994;-89
2022/11/01 00:53:26;;;;;;;14.77;11.37;;;11.40;99.90;;;;;;4970045;28;20649;-90
2022/11/01 00:55:53;;;;;;;16.00;12.13;;;11.50;99.90;;;;;;4970498;28;20632;-89
2022/11/01 00:58:20;;;;;;;12.70;10.77;;;11.60;99.90;;;;;;4970858;28;21226;-89
2022/11/01 01:00:48;;;;;;;12.03;10.73;;;11.10;99.90;;;;;;4970849;28;20629;-89
2022/11/01 01:03:14;;;;;;;13.07;11.33;;;11.50;99.90;;;;;;4971355;28;20649;-89
2022/11/01 01:05:41;;;;;;;12.03;10.83;;;11.60;99.90;;;;;;4969539;28;20944;-88
2022/11/01 01:08:10;;;;;;;12.97;11.40;;;11.60;99.90;;;;;;4970332;28;20666;-89
2022/11/01 01:10:37;;;;;;;14.87;12.17;;;11.40;99.90;;;;;;4969375;28;20644;-89
2022/11/01 01:13:03;;;;;;;11.90;10.70;;;11.30;99.90;;;;;;4969256;28;20657;-89
2022/11/01 01:15:30;;;;;;;14.13;11.50;;;11.50;99.90;;;;;;4965256;28;20919;-90
2022/11/01 01:17:57;;;;;;;12.70;10.77;;;11.50;99.90;;;;;;4971068;28;21194;-89
2022/11/01 01:20:24;;;;;;;12.20;11.10;;;11.40;99.90;;;;;;4971627;28;20638;-90
2022/11/01 01:22:51;;;;;;;11.30;10.27;;;11.40;99.90;;;;;;4970457;28;20688;-90
2022/11/01 01:25:19;;;;;;;16.03;10.97;;;11.50;99.90;;;;;;4970006;28;21227;-90
2022/11/01 01:27:46;;;;;;;14.10;10.77;;;11.50;99.90;;;;;;4972465;28;20707;-91
2022/11/01 01:30:13;;;;;;;12.30;11.13;;;11.60;99.90;;;;;;4973055;28;20649;-90
2022/11/01 01:32:40;;;;;;;13.83;10.70;;;11.70;99.90;;;;;;4961613;28;20672;-89
2022/11/01 01:35:08;;;;;;;12.40;10.37;;;11.50;99.90;;;;;;4970483;28;20629;-90
2022/11/01 01:37:35;;;;;;;11.40;10.30;;;11.60;99.90;;;;;;4974747;28;20630;-90
2022/11/01 01:40:02;;;;;;;10.67;9.67;;;11.10;99.90;;;;;;4969281;28;20636;-89
2022/11/01 01:42:32;;;;;;;11.50;10.40;;;11.60;99.90;;;;;;4974305;28;21234;-90
2022/11/01 01:45:23;;;;;;;15.87;11.90;;;11.10;99.90;;;;;;4969951;28;20621;-91
2022/11/01 01:47:52;;;;;;;12.87;11.77;;;11.60;99.90;;;;;;4964094;28;20655;-89
2022/11/01 01:50:26;;;;;;;12.20;11.10;;;11.20;99.90;;;;;;4970982;28;20633;-90
2022/11/01 01:52:58;;;;;;;16.40;12.90;;;10.90;99.90;;;;;;4971381;28;21277;-90
2022/11/01 01:55:29;;;;;;;12.50;11.30;;;11.50;99.90;;;;;;4971606;28;20632;-90
2022/11/01 01:57:58;;;;;;;12.93;11.60;;;11.00;99.90;;;;;;4974467;28;20645;-90
2022/11/01 02:00:25;;;;;;;18.13;13.20;;;11.10;99.90;;;;;;4970182;28;20638;-90
2022/11/01 02:02:53;;;;;;;14.20;12.80;;;11.20;99.90;;;;;;4971301;28;20664;-90
2022/11/01 02:05:28;;;;;;;13.30;11.80;;;11.50;99.90;;;;;;4968297;28;20626;-90
2022/11/01 02:07:56;;;;;;;13.23;11.77;;;11.10;99.90;;;;;;4969450;28;20677;-90
2022/11/01 02:10:23;;;;;;;13.50;12.20;;;11.40;99.90;;;;;;4969377;28;20629;-90
2022/11/01 02:12:50;;;;;;;12.87;11.87;;;11.30;99.90;;;;;;4973106;28;20668;-90
2022/11/01 02:15:23;;;;;;;14.23;12.93;;;11.40;99.90;;;;;;4969568;28;20629;-89
2022/11/01 02:17:59;;;;;;;13.10;11.77;;;11.00;99.90;;;;;;4968889;28;20637;-90
2022/11/01 02:20:46;;;;;;;11.53;10.43;;;11.60;99.90;;;;;;4975789;28;20640;-89
2022/11/01 02:23:57;;;;;;;16.13;12.23;;;11.40;99.90;;;;;;4974427;28;20656;-89
2022/11/01 02:26:54;;;;;;;13.77;12.37;;;11.20;99.90;;;;;;4971421;28;20629;-89
2022/11/01 02:29:40;;;;;;;13.33;12.23;;;11.30;99.90;;;;;;4970641;28;21026;-90
2022/11/01 02:32:17;;;;;;;13.27;12.13;;;11.50;99.90;;;;;;4968198;28;20637;-89
2022/11/01 02:34:49;;;;;;;14.60;13.10;;;11.50;99.90;;;;;;4969732;28;20621;-90
2022/11/01 02:37:23;;;;;;;16.63;13.20;;;11.50;99.90;;;;;;4970051;28;20641;-89
2022/11/01 02:39:53;;;;;;;14.43;12.00;;;11.60;99.90;;;;;;4972547;28;20636;-89
2022/11/01 02:42:25;;;;;;;16.50;12.60;;;11.80;99.90;;;;;;4973043;28;20653;-89
2022/11/01 02:44:58;;;;;;;13.17;11.87;;;11.80;99.90;;;;;;4966977;28;21192;-89
2022/11/01 02:47:29;;;;;;;13.83;11.77;;;11.20;99.90;;;;;;4976250;28;20636;-90
2022/11/01 02:50:01;;;;;;;14.33;12.83;;;11.90;99.90;;;;;;4974201;28;21194;-90
2022/11/01 02:52:30;;;;;;;13.53;12.10;;;11.70;99.90;;;;;;4975597;28;20653;-90
2022/11/01 02:54:59;;;;;;;12.97;11.60;;;11.50;99.90;;;;;;4977446;28;20637;-90
2022/11/01 02:57:33;;;;;;;13.00;11.70;;;11.90;99.90;;;;;;4975345;28;20676;-90
2022/11/01 03:00:05;;;;;;;13.93;12.57;;;11.80;99.90;;;;;;4977350;28;20605;-90
2022/11/01 03:02:39;;;;;;;16.63;12.90;;;11.70;99.90;;;;;;4975185;28;21606;-90
2022/11/01 03:05:10;;;;;;;14.13;12.70;;;12.00;99.90;;;;;;4971815;28;21120;-90
2022/11/01 03:07:38;;;;;;;14.23;12.70;;;11.90;99.90;;;;;;4974198;28;20644;-90
2022/11/01 03:10:06;;;;;;;16.23;12.37;;;11.70;99.90;;;;;;4974203;28;20712;-89
2022/11/01 03:12:38;;;;;;;15.03;12.80;;;11.80;99.90;;;;;;4976694;28;20656;-90
2022/11/01 03:15:19;;;;;;;14.47;12.97;;;11.70;99.90;;;;;;4972609;28;20692;-90
2022/11/01 03:17:52;;;;;;;15.67;13.60;;;11.80;99.90;;;;;;4975283;28;20688;-90
2022/11/01 03:20:23;;;;;;;15.77;14.13;;;11.60;99.90;;;;;;4972682;28;20648;-90
2022/11/01 03:22:54;;;;;;;14.30;12.80;;;11.90;99.90;;;;;;4973702;28;20663;-90
2022/11/01 03:25:38;;;;;;;14.70;12.50;;;11.90;99.90;;;;;;4971000;28;20634;-89
2022/11/01 03:28:11;;;;;;;14.47;12.70;;;12.00;99.90;;;;;;4971412;28;21241;-89
2022/11/01 03:30:41;;;;;;;14.27;12.80;;;11.90;99.90;;;;;;4979372;28;20641;-88
2022/11/01 03:33:12;;;;;;;14.60;12.07;;;11.60;99.90;;;;;;4973415;28;21046;-90
2022/11/01 03:35:42;;;;;;;13.90;12.67;;;11.70;99.90;;;;;;4972244;28;21049;-88
2022/11/01 03:38:13;;;;;;;16.40;12.43;;;12.10;99.90;;;;;;4973636;28;20636;-88
2022/11/01 03:40:44;;;;;;;14.80;13.13;;;12.00;99.90;;;;;;4967694;28;20629;-88
2022/11/01 03:43:13;;;;;;;13.97;12.10;;;11.90;99.90;;;;;;4972830;28;20660;-89
2022/11/01 03:45:41;;;;;;;14.17;12.67;;;11.90;99.90;;;;;;4972213;28;20685;-89
2022/11/01 03:48:10;;;;;;;12.50;11.30;;;11.60;99.90;;;;;;4972173;28;21209;-89
2022/11/01 03:50:38;;;;;;;13.53;12.20;;;11.60;99.90;;;;;;4973911;28;20741;-89
2022/11/01 03:53:05;;;;;;;14.23;12.83;;;12.00;99.90;;;;;;4966249;28;20669;-89
2022/11/01 03:55:32;;;;;;;19.53;12.20;;;11.60;99.90;;;;;;4972401;28;20640;-90
2022/11/01 03:57:59;;;;;;;12.77;11.77;;;12.10;99.90;;;;;;4973448;28;20637;-89
2022/11/01 04:00:29;;;;;;;15.43;12.50;;;12.10;99.90;;;;;;4975956;28;20629;-89
2022/11/01 04:02:57;;;;;;;13.83;12.00;;;12.00;99.90;;;;;;4973423;28;20678;-89
2022/11/01 04:05:26;;;;;;;13.80;12.40;;;12.10;99.90;;;;;;4970872;28;20625;-90
2022/11/01 04:07:53;;;;;;;14.50;13.10;;;12.10;99.90;;;;;;4971522;28;20641;-89
2022/11/01 04:10:21;;;;;;;14.47;12.97;;;11.90;99.90;;;;;;4969991;28;20672;-90
2022/11/01 04:12:49;;;;;;;16.37;11.63;;;11.70;99.90;;;;;;4975406;28;20672;-89
2022/11/01 04:20:52;;;;;;;14.27;12.77;;;11.70;99.90;;;;;;4973351;28;20608;-89
2022/11/01 04:23:19;;;;;;;14.90;13.10;;;12.10;99.90;;;;;;4966880;28;20647;-88
2022/11/01 04:25:46;;;;;;;16.10;13.37;;;11.70;99.90;;;;;;4969733;28;20629;-89
2022/11/01 04:28:13;;;;;;;16.27;13.50;;;12.10;99.90;;;;;;4971146;28;20629;-89
2022/11/01 04:30:40;;;;;;;13.67;12.27;;;11.70;99.90;;;;;;4972018;28;20645;-89
2022/11/01 04:33:07;;;;;;;16.50;13.67;;;12.10;99.90;;;;;;4970872;28;21022;-89
2022/11/01 04:35:36;;;;;;;16.60;13.00;;;12.00;99.90;;;;;;4972003;28;20622;-88
2022/11/01 04:38:04;;;;;;;16.00;14.33;;;12.20;99.90;;;;;;4967813;28;20653;-90
2022/11/01 04:40:32;;;;;;;16.40;13.73;;;11.60;99.90;;;;;;4975004;28;20689;-90
2022/11/01 04:42:59;;;;;;;15.33;14.03;;;12.00;99.90;;;;;;4971553;28;20653;-90
2022/11/01 04:45:26;;;;;;;18.33;14.93;;;12.10;99.90;;;;;;4970844;28;20625;-90
2022/11/01 04:48:01;;;;;;;17.10;15.17;;;12.20;99.90;;;;;;4970477;28;21200;-90
2022/11/01 04:50:28;;;;;;;18.83;14.03;;;12.20;99.90;;;;;;4972014;28;20669;-90
2022/11/01 04:52:54;;;;;;;15.20;13.70;;;12.00;99.90;;;;;;4972848;28;20660;-90
2022/11/01 04:55:22;;;;;;;14.23;12.93;;;12.10;99.90;;;;;;4972735;28;20621;-90
2022/11/01 04:57:49;;;;;;;25.30;14.23;;;11.80;99.90;;;;;;4972396;28;20630;-91
2022/11/01 05:00:16;;;;;;;14.50;13.10;;;11.70;99.90;;;;;;4972625;28;20617;-90
2022/11/01 05:02:43;;;;;;;15.20;13.63;;;11.90;99.90;;;;;;4972811;28;20672;-90
2022/11/01 05:05:11;;;;;;;17.53;13.50;;;12.20;99.90;;;;;;4969422;28;20645;-89
2022/11/01 05:07:38;;;;;;;15.33;13.13;;;12.10;99.90;;;;;;4970266;28;20650;-90
2022/11/01 05:10:06;;;;;;;14.33;12.97;;;12.20;99.90;;;;;;4971867;28;21009;-88
2022/11/01 05:12:34;;;;;;;13.63;12.00;;;12.10;99.90;;;;;;4973279;28;20656;-89
2022/11/01 05:15:01;;;;;;;15.33;13.70;;;12.00;99.90;;;;;;4971456;28;20669;-89
2022/11/01 05:17:28;;;;;;;16.53;13.57;;;12.20;99.90;;;;;;4972314;28;20734;-89
2022/11/01 05:19:54;;;;;;;14.87;13.30;;;12.10;99.90;;;;;;4971971;28;21170;-89
2022/11/01 05:22:21;;;;;;;14.70;13.30;;;12.30;99.90;;;;;;4969385;28;20657;-88
2022/11/01 05:24:48;;;;;;;14.00;12.70;;;12.30;99.90;;;;;;4968751;28;21322;-89
2022/11/01 05:27:15;;;;;;;14.97;13.47;;;12.20;99.90;;;;;;4970104;28;20633;-89
2022/11/01 05:29:44;;;;;;;14.97;12.70;;;12.30;99.90;;;;;;4973201;28;20676;-88
2022/11/01 05:32:11;;;;;;;14.30;13.03;;;12.10;99.90;;;;;;4975797;28;20658;-88
2022/11/01 05:34:37;;;;;;;19.90;13.17;;;12.20;99.90;;;;;;4978522;28;20649;-89
2022/11/01 05:37:04;;;;;;;13.73;12.20;;;12.20;99.90;;;;;;4972221;28;20625;-88
2022/11/01 05:39:31;;;;;;;13.63;12.27;;;12.20;99.90;;;;;;4976729;28;20987;-89
2022/11/01 05:41:57;;;;;;;15.83;14.13;;;12.20;99.90;;;;;;4985727;28;20633;-89
2022/11/01 05:44:24;;;;;;;13.27;11.97;;;12.50;99.90;;;;;;4983237;28;21003;-89
2022/11/01 05:46:52;;;;;;;17.00;11.90;;;12.20;99.90;;;;;;4985479;28;20632;-90
2022/11/01 05:49:20;;;;;;;12.40;11.20;;;12.30;99.90;;;;;;4984934;28;20666;-89
2022/11/01 05:51:47;;;;;;;12.00;10.80;;;12.20;99.90;;;;;;4988324;28;20665;-90
2022/11/01 05:54:14;;;;;;;13.33;11.60;;;11.90;99.90;;;;;;4973093;28;21202;-90
2022/11/01 05:56:40;;;;;;;12.40;11.10;;;12.40;99.90;;;;;;4977444;28;20991;-90
2022/11/01 05:59:07;;;;;;;12.60;10.20;;;12.30;99.90;;;;;;4974521;28;20625;-90
2022/11/01 06:01:34;;;;;;;11.00;10.00;;;12.50;99.90;;;;;;4977239;28;21114;-89
2022/11/01 06:04:02;;;;;;;12.60;8.40;;;12.30;99.90;;;;;;4971639;28;20645;-90
2022/11/01 06:06:29;;;;;;;8.90;8.20;;;12.30;99.90;;;;;;4970340;28;20652;-89
2022/11/01 06:08:56;;;;;;;8.50;7.60;;;12.20;99.90;;;;;;4974531;28;20681;-90
2022/11/01 06:11:23;;;;;;;14.30;8.90;;;12.40;99.90;;;;;;4978119;28;20672;-89
2022/11/01 06:13:54;;;;;;;9.00;8.30;;;12.40;99.90;;;;;;4984761;28;20633;-89
2022/11/01 06:16:24;;;;;;;9.60;8.70;;;12.50;99.90;;;;;;4974463;28;20723;-89
2022/11/01 06:18:51;;;;;;;11.33;9.00;;;12.30;99.90;;;;;;4977366;28;20656;-88
2022/11/01 06:21:20;;;;;;;8.70;7.80;;;12.30;99.90;;;;;;4981248;28;20629;-89
2022/11/01 06:23:49;;;;;;;8.63;7.70;;;12.50;99.90;;;;;;4972646;28;20629;-89
2022/11/01 06:26:17;;;;;;;7.40;6.60;;;12.70;99.90;;;;;;4974008;28;20654;-88
2022/11/01 06:28:44;;;;;;;7.83;7.17;;;12.70;99.90;;;;;;4973662;28;20632;-89
2022/11/01 06:31:13;;;;;;;7.63;6.93;;;12.60;99.90;;;;;;4976709;28;20634;-89
2022/11/01 06:33:39;;;;;;;7.20;5.80;;;12.60;99.90;;;;;;4975103;28;20637;-88
2022/11/01 06:36:07;;;;;;;6.40;5.43;;;12.60;99.90;;;;;;4973563;28;20653;-88
2022/11/01 06:38:35;;;;;;;8.57;6.80;;;12.70;99.90;;;;;;4978669;28;21165;-88
2022/11/01 06:41:02;;;;;;;10.10;8.53;;;12.80;99.90;;;;;;4972180;28;20625;-89
2022/11/01 06:43:29;;;;;;;7.23;6.40;;;12.80;99.90;;;;;;4973979;28;20633;-89
2022/11/01 06:45:59;;;;;;;11.90;6.77;;;12.90;99.90;;;;;;4975043;28;21211;-89
2022/11/01 06:48:26;;;;;;;5.57;5.00;;;12.90;99.90;;;;;;4973530;28;20634;-89
2022/11/01 06:50:54;;;;;;;6.60;5.50;;;13.20;99.90;;;;;;4973500;28;20668;-89
2022/11/01 06:53:21;;;;;;;7.10;6.40;;;13.00;99.90;;;;;;4970290;28;20713;-89
2022/11/01 06:55:49;;;;;;;6.23;5.67;;;13.00;99.90;;;;;;4969829;28;20652;-90
2022/11/01 06:58:16;;;;;;;8.30;5.83;;;12.60;99.90;;;;;;4971062;28;20625;-89
2022/11/01 07:00:43;;;;;;;5.43;4.80;;;12.70;99.90;;;;;;4966888;28;21211;-89
2022/11/01 07:03:12;;;;;;;9.30;5.70;;;13.10;99.90;;;;;;4970171;28;20633;-88
2022/11/01 07:05:40;;;;;;;4.13;3.40;;;13.30;99.90;;;;;;4984255;28;20636;-88
2022/11/01 07:08:09;;;;;;;8.83;3.60;;;13.30;99.90;;;;;;4986683;28;20621;-88
2022/11/01 07:10:36;;;;;;;4.90;3.90;;;13.30;99.90;;;;;;4978837;28;20672;-88
2022/11/01 07:13:06;;;;;;;5.50;4.40;;;13.40;99.90;;;;;;4974438;28;21376;-88
2022/11/01 07:15:34;;;;;;;5.13;3.53;;;13.20;99.90;;;;;;4972505;28;20660;-89
2022/11/01 07:18:03;;;;;;;6.33;3.90;;;13.40;99.90;;;;;;4971524;28;20646;-89
2022/11/01 07:20:34;;;;;;;5.03;3.80;;;13.50;99.90;;;;;;4968416;28;20641;-88
2022/11/01 07:23:01;;;;;;;8.83;4.40;;;13.50;99.90;;;;;;4974396;28;20625;-88
2022/11/01 07:25:29;;;;;;;8.00;4.10;;;13.50;99.90;;;;;;4971779;28;20629;-89
2022/11/01 07:27:56;;;;;;;6.37;5.03;;;13.60;99.90;;;;;;4970608;28;20661;-89
2022/11/01 07:30:25;;;;;;;6.53;4.80;;;13.60;99.90;;;;;;4975484;28;20664;-88
2022/11/01 07:32:55;;;;;;;5.70;4.27;;;13.60;99.90;;;;;;4977362;28;20667;-89
2022/11/01 07:35:22;;;;;;;4.73;4.30;;;13.70;99.90;;;;;;4976330;28;20655;-89
2022/11/01 07:37:49;;;;;;;4.10;3.70;;;13.70;99.90;;;;;;4976861;28;20656;-90
2022/11/01 07:40:16;;;;;;;5.07;4.57;;;13.80;99.90;;;;;;4976350;28;20621;-90
2022/11/01 07:42:44;;;;;;;4.90;4.40;;;13.90;99.90;;;;;;4969616;28;20629;-90
2022/11/01 07:45:12;;;;;;;7.07;5.20;;;13.70;99.90;;;;;;4978759;28;20624;-90
2022/11/01 07:47:41;;;;;;;7.53;5.67;;;13.70;99.90;;;;;;4973791;28;20665;-89
2022/11/01 07:50:09;;;;;;;8.37;5.10;;;14.00;99.90;;;;;;4971818;28;21233;-89
2022/11/01 07:52:36;;;;;;;7.30;6.60;;;14.00;99.90;;;;;;4975124;28;21198;-92
2022/11/01 07:55:03;;;;;;;10.03;6.43;;;14.00;99.90;;;;;;4972847;28;20642;-90
2022/11/01 07:57:30;;;;;;;7.53;6.67;;;13.80;99.90;;;;;;4972224;28;20653;-89
2022/11/01 07:59:57;;;;;;;9.43;6.53;;;14.00;99.90;;;;;;4972243;28;21097;-90
2022/11/01 08:02:23;;;;;;;7.40;6.57;;;14.10;99.90;;;;;;4974370;28;20645;-90
2022/11/01 08:04:53;;;;;;;10.50;7.23;;;14.10;99.90;;;;;;4973823;28;20634;-90
2022/11/01 08:07:22;;;;;;;11.30;8.47;;;14.10;99.90;;;;;;4975815;28;20667;-90
2022/11/01 08:09:49;;;;;;;11.27;6.97;;;14.10;99.90;;;;;;4973369;28;20674;-91
2022/11/01 08:12:15;;;;;;;8.57;6.83;;;14.20;99.90;;;;;;4977861;28;20637;-90
2022/11/01 08:14:42;;;;;;;9.23;6.17;;;14.30;99.90;;;;;;4975265;28;20641;-90
2022/11/01 08:17:09;;;;;;;6.80;6.10;;;14.40;99.90;;;;;;4979379;28;20657;-91
2022/11/01 08:19:36;;;;;;;6.87;5.17;;;14.40;99.90;;;;;;4974909;28;20621;-90
2022/11/01 08:22:04;;;;;;;7.80;5.13;;;14.60;99.90;;;;;;4972239;28;21201;-90
2022/11/01 08:24:31;;;;;;;8.30;5.60;;;14.60;99.90;;;;;;4968922;28;20668;-90
2022/11/01 08:26:58;;;;;;;7.03;5.37;;;14.70;99.90;;;;;;4971874;28;20649;-90
2022/11/01 08:29:25;;;;;;;6.30;5.40;;;14.80;99.90;;;;;;4973729;28;20644;-90
2022/11/01 08:31:51;;;;;;;10.17;5.90;;;14.90;99.90;;;;;;4972624;28;20641;-91
2022/11/01 08:34:19;;;;;;;7.33;5.83;;;15.00;99.90;;;;;;4969769;28;20625;-91
2022/11/01 08:36:47;;;;;;;6.20;5.40;;;15.10;99.90;;;;;;4970485;28;20669;-91
2022/11/01 08:39:15;;;;;;;6.73;5.37;;;15.20;99.90;;;;;;4972428;28;20638;-89
2022/11/01 08:41:42;;;;;;;5.30;4.80;;;15.30;99.90;;;;;;4968754;28;20648;-89
2022/11/01 08:44:10;;;;;;;6.23;4.57;;;15.30;99.90;;;;;;4972736;28;20635;-89
2022/11/01 08:46:36;;;;;;;5.70;5.17;;;15.40;99.90;;;;;;4967898;28;20657;-91
2022/11/01 08:49:04;;;;;;;6.70;5.70;;;15.50;99.90;;;;;;4963554;28;20625;-90
2022/11/01 08:51:31;;;;;;;6.07;4.20;;;15.60;99.90;;;;;;4966760;28;20672;-92
2022/11/01 08:53:58;;;;;;;5.93;4.90;;;15.70;99.90;;;;;;4975836;28;20653;-90
2022/11/01 08:56:29;;;;;;;5.90;4.70;;;15.80;99.90;;;;;;4971487;28;20644;-91
2022/11/01 08:58:56;;;;;;;7.47;3.93;;;15.90;99.90;;;;;;4970305;28;20653;-91
2022/11/01 09:01:25;;;;;;;4.90;4.50;;;15.90;99.90;;;;;;4975891;28;20657;-93
2022/11/01 09:03:55;;;;;;;4.03;3.53;;;16.00;99.90;;;;;;4973569;28;20644;-92
2022/11/01 09:06:22;;;;;;;4.90;3.77;;;16.10;99.90;;;;;;4969900;28;20637;-92
2022/11/01 09:08:50;;;;;;;5.63;4.17;;;16.20;99.90;;;;;;4974922;28;20675;-92
2022/11/01 09:11:17;;;;;;;4.23;3.87;;;16.30;99.90;;;;;;4970933;28;21330;-90
2022/11/01 09:13:46;;;;;;;6.53;3.90;;;16.30;99.90;;;;;;4970584;28;20633;-90
2022/11/01 09:16:13;;;;;;;6.70;4.30;;;16.40;99.90;;;;;;4973151;28;20993;-90
2022/11/01 09:18:39;;;;;;;7.27;4.50;;;16.50;99.90;;;;;;4968970;28;20797;-91
2022/11/01 09:21:07;;;;;;;6.50;4.87;;;16.50;99.90;;;;;;4969067;28;20630;-90
2022/11/01 09:23:34;;;;;;;5.57;5.10;;;16.60;99.90;;;;;;4972988;28;20640;-90
2022/11/01 09:26:05;;;;;;;6.57;5.97;;;16.70;99.90;;;;;;4972408;28;20688;-89
2022/11/01 09:28:34;;;;;;;6.07;5.47;;;16.70;99.90;;;;;;4975836;28;20646;-90
2022/11/01 09:31:04;;;;;;;5.63;5.10;;;16.80;99.90;;;;;;4971451;28;20769;-92
2022/11/01 09:33:32;;;;;;;4.57;4.20;;;16.80;99.90;;;;;;4969527;28;20676;-90
2022/11/01 09:35:59;;;;;;;4.13;3.80;;;16.90;99.90;;;;;;4960456;28;20621;-89
2022/11/01 09:38:26;;;;;;;4.63;3.30;;;16.80;99.90;;;;;;4978705;28;20651;-90
2022/11/01 09:40:59;;;;;;;6.73;3.70;;;16.80;99.90;;;;;;4969996;28;20637;-90
2022/11/01 09:43:29;;;;;;;7.03;4.00;;;16.90;99.90;;;;;;4968372;28;20628;-90
2022/11/01 09:45:58;;;;;;;9.80;4.60;;;17.00;99.90;;;;;;4967987;28;20617;-91
2022/11/01 09:48:29;;;;;;;8.37;7.57;;;17.10;99.90;;;;;;4966355;28;20637;-93
2022/11/01 09:50:56;;;;;;;5.47;4.90;;;17.30;99.90;;;;;;4975398;28;20658;-91
2022/11/01 09:53:26;;;;;;;3.60;3.23;;;17.50;99.90;;;;;;4972191;28;20633;-91
2022/11/01 09:56:04;;;;;;;6.67;4.50;;;17.60;99.90;;;;;;4967538;28;20792;-90
2022/11/01 09:58:40;;;;;;;2.30;2.00;;;17.70;99.90;;;;;;4971094;28;20653;-90
2022/11/01 10:01:24;;;;;;;3.07;1.70;;;17.80;99.90;;;;;;4971418;28;20632;-90
2022/11/01 10:04:10;;;;;;;1.37;1.13;;;18.20;99.90;;;;;;4972354;28;20652;-91
2022/11/01 10:06:42;;;;;;;1.80;1.53;;;18.50;98.00;;;;;;4973536;28;20660;-91
2022/11/01 10:09:22;;;;;;;3.10;1.40;;;18.90;51.70;;;;;;4968763;28;20661;-90
2022/11/01 10:12:03;;;;;;;0.87;0.87;;;19.30;1.00;;;;;;4968319;28;20680;-90
2022/11/01 10:14:50;;;;;;;5.50;2.00;;;19.80;1.00;;;;;;4967664;28;20645;-89
2022/11/01 10:17:25;;;;;;;1.73;1.07;;;20.10;1.00;;;;;;4965793;28;20640;-89
2022/11/01 10:19:53;;;;;;;1.50;1.40;;;20.30;1.00;;;;;;4965158;28;20656;-90
2022/11/01 10:22:28;;;;;;;1.57;1.47;;;20.60;1.00;;;;;;4963990;28;20626;-90
2022/11/01 10:25:01;;;;;;;1.63;1.53;;;20.80;99.90;;;;;;4969858;28;20647;-91
2022/11/01 10:27:36;;;;;;;1.90;1.50;;;20.70;99.90;;;;;;4966587;28;20622;-91
2022/11/01 10:30:07;;;;;;;1.90;1.47;;;20.70;99.90;;;;;;4966268;28;20655;-89
2022/11/01 10:32:42;;;;;;;1.73;1.20;;;20.40;99.90;;;;;;4972752;28;20641;-95
2022/11/01 10:35:15;;;;;;;1.83;1.40;;;20.70;99.90;;;;;;4969419;28;20629;-93
2022/11/01 10:37:48;;;;;;;1.33;1.20;;;20.90;99.90;;;;;;4968850;28;20644;-94
2022/11/01 10:40:19;;;;;;;1.57;0.90;;;21.00;99.90;;;;;;4972045;28;20649;-91
2022/11/01 10:42:46;;;;;;;1.90;0.90;;;21.00;1.00;;;;;;4964878;28;20712;-91
2022/11/01 10:45:18;;;;;;;1.23;0.60;;;20.90;1.00;;;;;;4965565;28;21347;-92
2022/11/01 10:47:48;;;;;;;1.07;0.97;;;20.70;94.80;;;;;;4969894;28;20909;-92
2022/11/01 10:50:21;;;;;;;3.67;1.03;;;20.50;99.90;;;;;;4972533;28;21700;-92
2022/11/01 10:52:50;;;;;;;2.03;1.23;;;20.70;99.90;;;;;;4972938;28;20629;-93
2022/11/01 10:55:22;;;;;;;2.00;1.07;;;20.70;99.90;;;;;;4967265;28;20788;-91
2022/11/01 10:57:55;;;;;;;1.47;1.13;;;20.70;99.90;;;;;;4968605;28;20629;-91
2022/11/01 11:00:22;;;;;;;2.97;1.00;;;20.70;99.90;;;;;;4974195;28;20661;-92
2022/11/01 11:02:54;;;;;;;6.93;0.90;;;20.60;99.90;;;;;;4971889;28;20637;-93
2022/11/01 11:05:26;;;;;;;3.10;0.90;;;20.60;99.90;;;;;;4977974;28;21246;-94
2022/11/01 11:07:52;;;;;;;1.40;1.03;;;20.60;99.90;;;;;;4974943;28;20717;-95
2022/11/01 11:10:21;;;;;;;2.50;1.20;;;20.50;1.00;;;;;;4976878;28;21114;-96
2022/11/01 11:12:51;;;;;;;1.77;0.97;;;20.40;1.00;;;;;;4976267;28;20641;-94
2022/11/01 11:15:22;;;;;;;0.80;0.80;;;20.30;1.00;;;;;;4975975;28;20629;-94
2022/11/01 11:17:54;;;;;;;1.53;0.87;;;20.30;1.00;;;;;;4978488;28;20704;-93
2022/11/01 11:20:29;;;;;;;1.63;1.03;;;20.20;99.90;;;;;;4972376;28;21213;-93
2022/11/01 11:22:56;;;;;;;1.70;1.00;;;20.20;99.90;;;;;;4973212;28;20731;-92
2022/11/01 11:25:32;;;;;;;2.00;0.90;;;20.10;1.00;;;;;;4972171;28;20629;-92
2022/11/01 11:28:00;;;;;;;1.10;1.00;;;20.00;99.90;;;;;;4978737;28;20693;-92
2022/11/01 11:30:31;;;;;;;3.87;1.13;;;19.90;1.00;;;;;;4973002;28;20680;-93
2022/11/01 11:32:58;;;;;;;2.80;0.80;;;19.90;99.90;;;;;;4974757;28;21080;-91
2022/11/01 11:35:35;;;;;;;4.20;1.10;;;19.90;99.90;;;;;;4974065;28;20673;-93
2022/11/01 11:38:04;;;;;;;4.20;1.27;;;19.80;1.00;;;;;;4971737;28;20629;-95
2022/11/01 11:40:44;;;;;;;1.70;0.70;;;19.80;99.90;;;;;;4972371;28;20685;-90
2022/11/01 11:43:22;;;;;;;2.17;1.20;;;19.90;1.00;;;;;;4970308;28;20818;-90
2022/11/01 11:46:04;;;;;;;0.93;0.90;;;19.80;69.40;;;;;;4967495;28;20629;-91
2022/11/01 11:48:31;;;;;;;1.43;1.10;;;19.80;99.90;;;;;;4973073;28;20652;-92
2022/11/01 11:51:03;;;;;;;1.20;0.90;;;19.90;99.90;;;;;;4973647;28;20680;-91
2022/11/01 11:53:32;;;;;;;2.90;1.07;;;20.00;33.80;;;;;;4977145;28;20687;-92
2022/11/01 11:56:05;;;;;;;0.90;0.80;;;20.20;90.10;;;;;;4973941;28;20632;-90
2022/11/01 11:58:36;;;;;;;1.23;0.90;;;20.30;13.80;;;;;;4972403;28;20653;-91
2022/11/01 12:01:05;;;;;;;1.10;0.73;;;20.40;99.90;;;;;;4973217;28;20652;-93
2022/11/01 12:03:43;;;;;;;2.53;0.70;;;20.40;1.00;;;;;;4968887;28;21364;-92
2022/11/01 12:06:20;;;;;;;1.97;1.20;;;20.40;1.00;;;;;;4972558;28;20643;-91
2022/11/01 12:08:49;;;;;;;2.13;0.93;;;20.40;1.00;;;;;;4972736;28;20687;-90
2022/11/01 12:11:17;;;;;;;2.40;1.10;;;20.30;1.00;;;;;;4966387;28;20665;-90
2022/11/01 12:13:46;;;;;;;2.90;0.97;;;20.20;35.80;;;;;;4972231;28;20628;-89
2022/11/01 12:16:23;;;;;;;2.23;0.83;;;20.20;99.90;;;;;;4972387;28;21247;-90
2022/11/01 12:18:55;;;;;;;2.20;0.87;;;20.20;99.90;;;;;;4968553;28;21268;-89
2022/11/01 12:21:27;;;;;;;3.67;1.30;;;20.10;1.00;;;;;;4968128;28;20618;-91
2022/11/01 12:23:59;;;;;;;2.07;0.90;;;20.10;1.00;;;;;;4970699;28;20637;-93
2022/11/01 12:26:30;;;;;;;1.77;0.87;;;20.20;99.90;;;;;;4974311;28;20641;-91
2022/11/01 12:29:04;;;;;;;1.83;1.40;;;20.20;99.90;;;;;;4976227;28;21257;-91
2022/11/01 12:31:31;;;;;;;1.53;0.80;;;20.10;1.00;;;;;;4971570;28;20668;-91
2022/11/01 12:34:04;;;;;;;3.63;1.40;;;20.00;99.90;;;;;;4973892;28;20630;-91
2022/11/01 12:36:39;;;;;;;2.83;1.63;;;19.90;9.60;;;;;;4964727;28;20622;-90
2022/11/01 12:39:17;;;;;;;1.73;1.00;;;19.80;99.90;;;;;;4974376;28;20664;-90
2022/11/01 12:41:50;;;;;;;2.80;1.23;;;19.70;1.00;;;;;;4972474;28;20616;-90
2022/11/01 12:44:31;;;;;;;2.17;1.13;;;19.70;1.00;;;;;;4971760;28;20645;-90
2022/11/01 12:47:04;;;;;;;3.13;1.40;;;19.70;97.90;;;;;;4965002;28;20637;-89
2022/11/01 12:49:34;;;;;;;2.30;1.03;;;19.60;99.90;;;;;;4967407;28;20653;-90
2022/11/01 12:52:10;;;;;;;2.80;1.40;;;19.70;62.90;;;;;;4971584;28;20698;-90
2022/11/01 12:54:40;;;;;;;2.90;1.30;;;19.60;1.00;;;;;;4975115;28;20987;-92
2022/11/01 12:57:14;;;;;;;1.63;1.20;;;19.60;99.90;;;;;;4966712;28;20636;-89